sensor_id;sensor_type;location;lat;lon;timestamp;pressure;altitude;pressure_sealevel;temperature;humidity
62374;BME280;48409;49.030;1.820;2023-03-04T00:01:45;101880.75;;;3.44;56.39
62374;BME280;48409;49.030;1.820;2023-03-04T00:04:11;101879.88;;;3.41;56.58
62374;BME280;48409;49.030;1.820;2023-03-04T00:06:36;101880.75;;;3.39;56.46
62374;BME280;48409;49.030;1.820;2023-03-04T00:09:01;101881.59;;;3.38;56.58
62374;BME280;48409;49.030;1.820;2023-03-04T00:11:28;101887.66;;;3.37;56.62
62374;BME280;48409;49.030;1.820;2023-03-04T00:13:54;101885.94;;;3.35;56.84
62374;BME280;48409;49.030;1.820;2023-03-04T00:16:20;101887.66;;;3.34;56.70
62374;BME280;48409;49.030;1.820;2023-03-04T00:18:45;101885.06;;;3.31;56.59
62374;BME280;48409;49.030;1.820;2023-03-04T00:21:11;101890.25;;;3.31;56.58
62374;BME280;48409;49.030;1.820;2023-03-04T00:23:36;101888.50;;;3.30;56.59
62374;BME280;48409;49.030;1.820;2023-03-04T00:26:01;101895.44;;;3.28;56.82
62374;BME280;48409;49.030;1.820;2023-03-04T00:28:26;101882.41;;;3.26;56.65
62374;BME280;48409;49.030;1.820;2023-03-04T00:30:52;101885.00;;;3.25;56.87
62374;BME280;48409;49.030;1.820;2023-03-04T00:33:17;101888.50;;;3.24;56.78
62374;BME280;48409;49.030;1.820;2023-03-04T00:35:42;101891.97;;;3.23;56.71
62374;BME280;48409;49.030;1.820;2023-03-04T00:38:07;101889.34;;;3.21;56.58
62374;BME280;48409;49.030;1.820;2023-03-04T00:40:33;101894.56;;;3.21;56.96
62374;BME280;48409;49.030;1.820;2023-03-04T00:42:58;101893.69;;;3.21;56.87
62374;BME280;48409;49.030;1.820;2023-03-04T00:45:23;101896.28;;;3.21;56.59
62374;BME280;48409;49.030;1.820;2023-03-04T00:47:48;101888.47;;;3.18;56.59
62374;BME280;48409;49.030;1.820;2023-03-04T00:50:14;101893.69;;;3.18;56.81
62374;BME280;48409;49.030;1.820;2023-03-04T00:52:39;101897.13;;;3.17;56.64
62374;BME280;48409;49.030;1.820;2023-03-04T00:55:04;101890.19;;;3.16;56.56
62374;BME280;48409;49.030;1.820;2023-03-04T00:57:30;101894.53;;;3.15;56.57
62374;BME280;48409;49.030;1.820;2023-03-04T00:59:55;101884.13;;;3.13;56.74
62374;BME280;48409;49.030;1.820;2023-03-04T01:02:20;101890.16;;;3.12;56.87
62374;BME280;48409;49.030;1.820;2023-03-04T01:04:46;101891.94;;;3.13;56.76
62374;BME280;48409;49.030;1.820;2023-03-04T01:07:11;101885.81;;;3.11;56.76
62374;BME280;48409;49.030;1.820;2023-03-04T01:09:36;101885.81;;;3.10;56.73
62374;BME280;48409;49.030;1.820;2023-03-04T01:12:01;101895.38;;;3.09;56.90
62374;BME280;48409;49.030;1.820;2023-03-04T01:14:27;101889.28;;;3.09;56.88
62374;BME280;48409;49.030;1.820;2023-03-04T01:16:52;101895.34;;;3.06;56.96
62374;BME280;48409;49.030;1.820;2023-03-04T01:19:17;101894.47;;;3.06;56.82
62374;BME280;48409;49.030;1.820;2023-03-04T01:21:43;101890.13;;;3.03;57.04
62374;BME280;48409;49.030;1.820;2023-03-04T01:24:10;101890.13;;;3.03;57.12
62374;BME280;48409;49.030;1.820;2023-03-04T01:26:35;101889.28;;;3.03;56.89
62374;BME280;48409;49.030;1.820;2023-03-04T01:29:01;101883.19;;;3.02;57.00
62374;BME280;48409;49.030;1.820;2023-03-04T01:31:26;101879.72;;;3.03;56.86
62374;BME280;48409;49.030;1.820;2023-03-04T01:33:51;101876.25;;;3.01;56.96
62374;BME280;48409;49.030;1.820;2023-03-04T01:36:17;101874.50;;;3.03;56.92
62374;BME280;48409;49.030;1.820;2023-03-04T01:38:42;101876.25;;;3.01;56.89
62374;BME280;48409;49.030;1.820;2023-03-04T01:41:07;101871.03;;;3.01;57.07
62374;BME280;48409;49.030;1.820;2023-03-04T01:43:35;101874.50;;;3.00;56.92
62374;BME280;48409;49.030;1.820;2023-03-04T01:46:01;101871.03;;;2.99;57.06
62374;BME280;48409;49.030;1.820;2023-03-04T01:48:29;101871.03;;;2.98;57.05
62374;BME280;48409;49.030;1.820;2023-03-04T01:50:55;101871.91;;;2.98;56.95
62374;BME280;48409;49.030;1.820;2023-03-04T01:53:24;101870.16;;;2.97;57.15
62374;BME280;48409;49.030;1.820;2023-03-04T01:55:51;101869.28;;;2.97;57.01
62374;BME280;48409;49.030;1.820;2023-03-04T01:58:16;101862.34;;;2.96;57.08
62374;BME280;48409;49.030;1.820;2023-03-04T02:00:42;101868.41;;;2.95;57.06
62374;BME280;48409;49.030;1.820;2023-03-04T02:03:08;101869.25;;;2.94;56.91
62374;BME280;48409;49.030;1.820;2023-03-04T02:05:38;101865.81;;;2.93;57.02
62374;BME280;48409;49.030;1.820;2023-03-04T02:08:05;101873.59;;;2.92;57.08
62374;BME280;48409;49.030;1.820;2023-03-04T02:10:31;101864.06;;;2.91;56.95
62374;BME280;48409;49.030;1.820;2023-03-04T02:12:57;101874.47;;;2.91;57.06
62374;BME280;48409;49.030;1.820;2023-03-04T02:15:22;101870.97;;;2.89;56.97
62374;BME280;48409;49.030;1.820;2023-03-04T02:17:48;101865.78;;;2.89;57.15
62374;BME280;48409;49.030;1.820;2023-03-04T02:22:47;101860.53;;;2.85;57.19
62374;BME280;48409;49.030;1.820;2023-03-04T02:25:15;101859.69;;;2.83;57.10
62374;BME280;48409;49.030;1.820;2023-03-04T02:27:43;101861.41;;;2.83;57.25
62374;BME280;48409;49.030;1.820;2023-03-04T02:30:09;101855.34;;;2.82;57.19
62374;BME280;48409;49.030;1.820;2023-03-04T02:32:35;101852.75;;;2.82;57.29
62374;BME280;48409;49.030;1.820;2023-03-04T02:35:00;101855.34;;;2.82;57.15
62374;BME280;48409;49.030;1.820;2023-03-04T02:37:25;101852.72;;;2.81;57.08
62374;BME280;48409;49.030;1.820;2023-03-04T02:39:51;101861.38;;;2.81;57.08
62374;BME280;48409;49.030;1.820;2023-03-04T02:42:16;101850.13;;;2.82;57.10
62374;BME280;48409;49.030;1.820;2023-03-04T02:44:43;101850.13;;;2.82;57.20
62374;BME280;48409;49.030;1.820;2023-03-04T02:47:11;101848.38;;;2.81;57.17
62374;BME280;48409;49.030;1.820;2023-03-04T02:49:37;101850.13;;;2.82;56.95
62374;BME280;48409;49.030;1.820;2023-03-04T02:52:13;101845.78;;;2.81;57.22
62374;BME280;48409;49.030;1.820;2023-03-04T02:54:41;101843.16;;;2.81;57.35
62374;BME280;48409;49.030;1.820;2023-03-04T02:57:08;101839.72;;;2.81;57.31
62374;BME280;48409;49.030;1.820;2023-03-04T02:59:34;101841.44;;;2.80;57.04
62374;BME280;48409;49.030;1.820;2023-03-04T03:01:59;101837.09;;;2.79;57.22
62374;BME280;48409;49.030;1.820;2023-03-04T03:04:25;101833.63;;;2.79;57.30
62374;BME280;48409;49.030;1.820;2023-03-04T03:06:50;101836.22;;;2.77;56.96
62374;BME280;48409;49.030;1.820;2023-03-04T03:09:16;101830.16;;;2.77;57.01
62374;BME280;48409;49.030;1.820;2023-03-04T03:11:41;101833.63;;;2.76;57.17
62374;BME280;48409;49.030;1.820;2023-03-04T03:14:06;101827.53;;;2.75;57.21
62374;BME280;48409;49.030;1.820;2023-03-04T03:16:32;101824.06;;;2.73;57.07
62374;BME280;48409;49.030;1.820;2023-03-04T03:18:57;101820.59;;;2.74;57.02
62374;BME280;48409;49.030;1.820;2023-03-04T03:21:22;101822.31;;;2.72;57.20
62374;BME280;48409;49.030;1.820;2023-03-04T03:23:48;101820.56;;;2.71;57.22
62374;BME280;48409;49.030;1.820;2023-03-04T03:26:13;101829.25;;;2.70;57.22
62374;BME280;48409;49.030;1.820;2023-03-04T03:28:38;101822.31;;;2.67;57.35
62374;BME280;48409;49.030;1.820;2023-03-04T03:31:04;101825.75;;;2.68;57.36
62374;BME280;48409;49.030;1.820;2023-03-04T03:33:29;101819.69;;;2.66;57.36
62374;BME280;48409;49.030;1.820;2023-03-04T03:35:55;101835.28;;;2.64;57.10
62374;BME280;48409;49.030;1.820;2023-03-04T03:38:20;101829.19;;;2.64;57.40
62374;BME280;48409;49.030;1.820;2023-03-04T03:40:45;101830.94;;;2.61;57.23
62374;BME280;48409;49.030;1.820;2023-03-04T03:43:10;101830.94;;;2.61;57.14
62374;BME280;48409;49.030;1.820;2023-03-04T03:45:36;101836.16;;;2.61;57.45
62374;BME280;48409;49.030;1.820;2023-03-04T03:48:01;101830.06;;;2.61;57.41
62374;BME280;48409;49.030;1.820;2023-03-04T03:50:27;101830.06;;;2.61;57.18
62374;BME280;48409;49.030;1.820;2023-03-04T03:52:53;101830.94;;;2.61;57.21
62374;BME280;48409;49.030;1.820;2023-03-04T03:55:19;101832.66;;;2.59;57.33
62374;BME280;48409;49.030;1.820;2023-03-04T03:57:44;101834.41;;;2.60;57.16
62374;BME280;48409;49.030;1.820;2023-03-04T04:00:09;101841.34;;;2.60;57.33
62374;BME280;48409;49.030;1.820;2023-03-04T04:02:35;101829.19;;;2.57;57.49
62374;BME280;48409;49.030;1.820;2023-03-04T04:05:00;101835.25;;;2.59;57.18
62374;BME280;48409;49.030;1.820;2023-03-04T04:07:25;101837.00;;;2.59;57.55
62374;BME280;48409;49.030;1.820;2023-03-04T04:09:50;101831.81;;;2.59;57.50
62374;BME280;48409;49.030;1.820;2023-03-04T04:12:16;101837.84;;;2.59;57.60
62374;BME280;48409;49.030;1.820;2023-03-04T04:14:42;101843.91;;;2.58;57.18
62374;BME280;48409;49.030;1.820;2023-03-04T04:17:07;101840.44;;;2.59;57.37
62374;BME280;48409;49.030;1.820;2023-03-04T04:19:33;101840.47;;;2.58;57.39
62374;BME280;48409;49.030;1.820;2023-03-04T04:21:58;101844.78;;;2.57;57.46
62374;BME280;48409;49.030;1.820;2023-03-04T04:24:23;101853.47;;;2.56;57.42
62374;BME280;48409;49.030;1.820;2023-03-04T04:26:49;101856.94;;;2.55;57.39
62374;BME280;48409;49.030;1.820;2023-03-04T04:29:14;101851.72;;;2.55;57.27
62374;BME280;48409;49.030;1.820;2023-03-04T04:31:40;101855.16;;;2.54;57.34
62374;BME280;48409;49.030;1.820;2023-03-04T04:34:05;101856.94;;;2.55;57.49
62374;BME280;48409;49.030;1.820;2023-03-04T04:36:30;101857.75;;;2.53;57.20
62374;BME280;48409;49.030;1.820;2023-03-04T04:38:56;101865.56;;;2.54;57.33
62374;BME280;48409;49.030;1.820;2023-03-04T04:41:25;101862.97;;;2.53;57.51
62374;BME280;48409;49.030;1.820;2023-03-04T04:43:52;101865.56;;;2.51;57.34
62374;BME280;48409;49.030;1.820;2023-03-04T04:46:17;101870.78;;;2.51;57.38
62374;BME280;48409;49.030;1.820;2023-03-04T04:48:43;101869.00;;;2.50;57.50
62374;BME280;48409;49.030;1.820;2023-03-04T04:51:08;101869.91;;;2.51;57.54
62374;BME280;48409;49.030;1.820;2023-03-04T04:53:34;101872.47;;;2.49;57.49
62374;BME280;48409;49.030;1.820;2023-03-04T04:55:59;101872.47;;;2.49;57.14
62374;BME280;48409;49.030;1.820;2023-03-04T04:58:24;101884.63;;;2.48;57.52
62374;BME280;48409;49.030;1.820;2023-03-04T05:00:50;101873.34;;;2.46;57.36
62374;BME280;48409;49.030;1.820;2023-03-04T05:03:15;101868.13;;;2.45;57.29
62374;BME280;48409;49.030;1.820;2023-03-04T05:05:41;101878.50;;;2.43;57.53
62374;BME280;48409;49.030;1.820;2023-03-04T05:08:06;101882.84;;;2.43;57.27
62374;BME280;48409;49.030;1.820;2023-03-04T05:10:31;101874.16;;;2.41;57.40
62374;BME280;48409;49.030;1.820;2023-03-04T05:12:56;101881.09;;;2.40;57.45
62374;BME280;48409;49.030;1.820;2023-03-04T05:15:22;101877.63;;;2.40;57.52
62374;BME280;48409;49.030;1.820;2023-03-04T05:17:47;101880.22;;;2.38;57.46
62374;BME280;48409;49.030;1.820;2023-03-04T05:20:12;101875.88;;;2.39;57.46
62374;BME280;48409;49.030;1.820;2023-03-04T05:22:38;101880.19;;;2.37;57.25
62374;BME280;48409;49.030;1.820;2023-03-04T05:25:03;101876.75;;;2.38;57.22
62374;BME280;48409;49.030;1.820;2023-03-04T05:27:29;101877.59;;;2.37;57.38
62374;BME280;48409;49.030;1.820;2023-03-04T05:29:54;101879.34;;;2.36;57.41
62374;BME280;48409;49.030;1.820;2023-03-04T05:32:23;101879.31;;;2.34;57.36
62374;BME280;48409;49.030;1.820;2023-03-04T05:34:48;101875.00;;;2.33;57.40
62374;BME280;48409;49.030;1.820;2023-03-04T05:37:14;101876.72;;;2.34;57.43
62374;BME280;48409;49.030;1.820;2023-03-04T05:39:39;101879.31;;;2.34;57.57
62374;BME280;48409;49.030;1.820;2023-03-04T05:42:04;101881.91;;;2.33;57.43
62374;BME280;48409;49.030;1.820;2023-03-04T05:44:30;101881.03;;;2.32;57.44
62374;BME280;48409;49.030;1.820;2023-03-04T05:46:55;101875.81;;;2.32;57.45
62374;BME280;48409;49.030;1.820;2023-03-04T05:49:20;101885.38;;;2.32;57.33
62374;BME280;48409;49.030;1.820;2023-03-04T05:51:48;101887.97;;;2.30;57.52
62374;BME280;48409;49.030;1.820;2023-03-04T05:54:14;101885.38;;;2.30;57.62
62374;BME280;48409;49.030;1.820;2023-03-04T05:56:40;101891.44;;;2.29;57.63
62374;BME280;48409;49.030;1.820;2023-03-04T05:59:05;101882.75;;;2.30;57.48
62374;BME280;48409;49.030;1.820;2023-03-04T06:01:30;101886.22;;;2.29;57.43
62374;BME280;48409;49.030;1.820;2023-03-04T06:03:55;101891.44;;;2.29;57.38
62374;BME280;48409;49.030;1.820;2023-03-04T06:06:21;101889.66;;;2.28;57.34
62374;BME280;48409;49.030;1.820;2023-03-04T06:08:46;101885.34;;;2.29;57.39
62374;BME280;48409;49.030;1.820;2023-03-04T06:11:11;101887.94;;;2.27;57.65
62374;BME280;48409;49.030;1.820;2023-03-04T06:13:37;101894.88;;;2.28;57.50
62374;BME280;48409;49.030;1.820;2023-03-04T06:16:02;101887.94;;;2.27;57.63
62374;BME280;48409;49.030;1.820;2023-03-04T06:18:28;101890.53;;;2.27;57.39
62374;BME280;48409;49.030;1.820;2023-03-04T06:21:00;101903.53;;;2.27;57.38
62374;BME280;48409;49.030;1.820;2023-03-04T06:23:26;101897.47;;;2.25;57.48
62374;BME280;48409;49.030;1.820;2023-03-04T06:25:55;101916.50;;;2.26;57.70
62374;BME280;48409;49.030;1.820;2023-03-04T06:28:21;101907.88;;;2.25;57.50
62374;BME280;48409;49.030;1.820;2023-03-04T06:30:47;101911.31;;;2.26;57.58
62374;BME280;48409;49.030;1.820;2023-03-04T06:33:12;101906.13;;;2.26;57.69
62374;BME280;48409;49.030;1.820;2023-03-04T06:35:37;101915.66;;;2.25;57.65
62374;BME280;48409;49.030;1.820;2023-03-04T06:38:03;101917.38;;;2.23;57.66
62374;BME280;48409;49.030;1.820;2023-03-04T06:40:28;101921.72;;;2.24;57.54
62374;BME280;48409;49.030;1.820;2023-03-04T06:42:53;101924.31;;;2.24;57.46
62374;BME280;48409;49.030;1.820;2023-03-04T06:45:18;101919.13;;;2.24;57.45
62374;BME280;48409;49.030;1.820;2023-03-04T06:47:44;101917.38;;;2.23;57.75
62374;BME280;48409;49.030;1.820;2023-03-04T06:50:10;101917.38;;;2.23;57.77
62374;BME280;48409;49.030;1.820;2023-03-04T06:52:36;101924.31;;;2.24;57.72
62374;BME280;48409;49.030;1.820;2023-03-04T06:55:01;101924.31;;;2.24;57.49
62374;BME280;48409;49.030;1.820;2023-03-04T06:57:26;101930.38;;;2.23;57.70
62374;BME280;48409;49.030;1.820;2023-03-04T06:59:51;101925.16;;;2.23;57.82
62374;BME280;48409;49.030;1.820;2023-03-04T07:02:17;101931.25;;;2.25;57.62
62374;BME280;48409;49.030;1.820;2023-03-04T07:04:42;101931.25;;;2.25;57.67
62374;BME280;48409;49.030;1.820;2023-03-04T07:07:07;101938.19;;;2.26;57.85
62374;BME280;48409;49.030;1.820;2023-03-04T07:09:32;101938.19;;;2.26;57.46
62374;BME280;48409;49.030;1.820;2023-03-04T07:11:58;101934.72;;;2.27;57.69
62374;BME280;48409;49.030;1.820;2023-03-04T07:14:23;101944.28;;;2.30;57.61
62374;BME280;48409;49.030;1.820;2023-03-04T07:16:48;101941.72;;;2.31;57.84
62374;BME280;48409;49.030;1.820;2023-03-04T07:19:13;101944.31;;;2.31;57.98
62374;BME280;48409;49.030;1.820;2023-03-04T07:21:39;101943.47;;;2.34;57.90
62374;BME280;48409;49.030;1.820;2023-03-04T07:24:04;101943.47;;;2.35;57.98
62374;BME280;48409;49.030;1.820;2023-03-04T07:26:29;101947.81;;;2.38;57.84
62374;BME280;48409;49.030;1.820;2023-03-04T07:28:55;101945.25;;;2.40;58.05
62374;BME280;48409;49.030;1.820;2023-03-04T07:31:23;101943.50;;;2.42;57.73
62374;BME280;48409;49.030;1.820;2023-03-04T07:33:49;101945.28;;;2.43;57.94
62374;BME280;48409;49.030;1.820;2023-03-04T07:36:15;101948.75;;;2.46;58.00
62374;BME280;48409;49.030;1.820;2023-03-04T07:38:44;101951.38;;;2.48;57.89
62374;BME280;48409;49.030;1.820;2023-03-04T07:41:09;101958.34;;;2.51;57.86
62374;BME280;48409;49.030;1.820;2023-03-04T07:43:34;101958.34;;;2.52;58.16
62374;BME280;48409;49.030;1.820;2023-03-04T07:46:00;101965.31;;;2.55;57.94
62374;BME280;48409;49.030;1.820;2023-03-04T07:48:26;101960.13;;;2.58;58.04
62374;BME280;48409;49.030;1.820;2023-03-04T07:51:01;101967.94;;;2.59;58.09
62374;BME280;48409;49.030;1.820;2023-03-04T07:53:26;101959.28;;;2.64;58.11
62374;BME280;48409;49.030;1.820;2023-03-04T07:55:51;101954.97;;;2.66;58.01
62374;BME280;48409;49.030;1.820;2023-03-04T07:58:17;101959.34;;;2.70;58.34
62374;BME280;48409;49.030;1.820;2023-03-04T08:00:44;101959.38;;;2.73;58.37
62374;BME280;48409;49.030;1.820;2023-03-04T08:03:09;101959.38;;;2.76;58.25
62374;BME280;48409;49.030;1.820;2023-03-04T08:05:34;101958.56;;;2.80;58.13
62374;BME280;48409;49.030;1.820;2023-03-04T08:07:59;101955.09;;;2.83;58.17
62374;BME280;48409;49.030;1.820;2023-03-04T08:10:25;101959.47;;;2.87;58.32
62374;BME280;48409;49.030;1.820;2023-03-04T08:12:50;101956.88;;;2.90;58.08
62374;BME280;48409;49.030;1.820;2023-03-04T08:15:15;101959.50;;;2.93;58.20
62374;BME280;48409;49.030;1.820;2023-03-04T08:17:40;101965.59;;;2.97;58.47
62374;BME280;48409;49.030;1.820;2023-03-04T08:20:06;101966.47;;;3.00;58.29
62374;BME280;48409;49.030;1.820;2023-03-04T08:22:31;101960.41;;;3.03;58.53
62374;BME280;48409;49.030;1.820;2023-03-04T08:24:56;101958.72;;;3.07;58.33
62374;BME280;48409;49.030;1.820;2023-03-04T08:27:21;101970.03;;;3.10;58.55
62374;BME280;48409;49.030;1.820;2023-03-04T08:29:47;101971.78;;;3.15;58.43
62374;BME280;48409;49.030;1.820;2023-03-04T08:32:12;101966.59;;;3.18;58.60
62374;BME280;48409;49.030;1.820;2023-03-04T08:34:38;101973.56;;;3.22;58.48
62374;BME280;48409;49.030;1.820;2023-03-04T08:37:03;101968.34;;;3.25;58.36
62374;BME280;48409;49.030;1.820;2023-03-04T08:39:28;101970.97;;;3.28;58.42
62374;BME280;48409;49.030;1.820;2023-03-04T08:41:53;101973.59;;;3.31;58.39
62374;BME280;48409;49.030;1.820;2023-03-04T08:44:19;101975.38;;;3.35;58.54
62374;BME280;48409;49.030;1.820;2023-03-04T08:46:44;101971.03;;;3.37;58.61
62374;BME280;48409;49.030;1.820;2023-03-04T08:49:12;101977.13;;;3.43;58.38
62374;BME280;48409;49.030;1.820;2023-03-04T08:51:38;101984.09;;;3.47;58.64
62374;BME280;48409;49.030;1.820;2023-03-04T08:54:04;101978.00;;;3.49;58.32
62374;BME280;48409;49.030;1.820;2023-03-04T08:56:29;101990.19;;;3.53;58.43
62374;BME280;48409;49.030;1.820;2023-03-04T08:58:55;101986.72;;;3.56;58.79
62374;BME280;48409;49.030;1.820;2023-03-04T09:01:20;101994.56;;;3.59;58.55
62374;BME280;48409;49.030;1.820;2023-03-04T09:03:45;101999.81;;;3.62;58.79
62374;BME280;48409;49.030;1.820;2023-03-04T09:06:12;101997.19;;;3.65;58.82
62374;BME280;48409;49.030;1.820;2023-03-04T09:08:38;102000.69;;;3.69;58.44
62374;BME280;48409;49.030;1.820;2023-03-04T09:11:03;102005.03;;;3.72;58.48
62374;BME280;48409;49.030;1.820;2023-03-04T09:13:29;101998.97;;;3.74;58.68
62374;BME280;48409;49.030;1.820;2023-03-04T09:15:55;102007.66;;;3.79;58.61
62374;BME280;48409;49.030;1.820;2023-03-04T09:18:21;102002.47;;;3.83;58.83
62374;BME280;48409;49.030;1.820;2023-03-04T09:20:48;102003.34;;;3.86;58.47
62374;BME280;48409;49.030;1.820;2023-03-04T09:23:13;102005.09;;;3.90;58.72
62374;BME280;48409;49.030;1.820;2023-03-04T09:25:39;102008.56;;;3.92;58.64
62374;BME280;48409;49.030;1.820;2023-03-04T09:28:05;102001.63;;;3.95;58.85
62374;BME280;48409;49.030;1.820;2023-03-04T09:30:31;102003.38;;;3.99;58.61
62374;BME280;48409;49.030;1.820;2023-03-04T09:32:56;102001.66;;;4.04;58.55
62374;BME280;48409;49.030;1.820;2023-03-04T09:35:22;101994.72;;;4.06;58.74
62374;BME280;48409;49.030;1.820;2023-03-04T09:37:47;101999.91;;;4.09;58.78
62374;BME280;48409;49.030;1.820;2023-03-04T09:40:17;102002.53;;;4.12;58.66
62374;BME280;48409;49.030;1.820;2023-03-04T09:43:04;101997.34;;;4.15;58.66
62374;BME280;48409;49.030;1.820;2023-03-04T09:45:50;101990.41;;;4.21;59.07
62374;BME280;48409;49.030;1.820;2023-03-04T09:48:15;101999.97;;;4.25;58.81
62374;BME280;48409;49.030;1.820;2023-03-04T09:50:43;101998.22;;;4.27;58.76
62374;BME280;48409;49.030;1.820;2023-03-04T09:53:24;101998.22;;;4.31;58.76
62374;BME280;48409;49.030;1.820;2023-03-04T09:55:54;101995.59;;;4.35;58.75
62374;BME280;48409;49.030;1.820;2023-03-04T10:03:53;101987.78;;;4.46;58.91
62374;BME280;48409;49.030;1.820;2023-03-04T10:06:19;101996.50;;;4.51;58.93
62374;BME280;48409;49.030;1.820;2023-03-04T10:08:50;101997.38;;;4.54;59.02
62374;BME280;48409;49.030;1.820;2023-03-04T10:11:52;101990.41;;;4.58;59.11
62374;BME280;48409;49.030;1.820;2023-03-04T10:16:48;101987.78;;;4.67;58.92
62374;BME280;48409;49.030;1.820;2023-03-04T10:21:41;101979.97;;;4.75;58.86
62374;BME280;48409;49.030;1.820;2023-03-04T10:24:10;101984.28;;;4.81;59.08
62374;BME280;48409;49.030;1.820;2023-03-04T10:26:36;101986.03;;;4.83;59.04
62374;BME280;48409;49.030;1.820;2023-03-04T10:29:02;101983.44;;;4.88;59.07
62374;BME280;48409;49.030;1.820;2023-03-04T10:31:35;101979.06;;;4.93;59.13
62374;BME280;48409;49.030;1.820;2023-03-04T10:34:01;101978.19;;;4.96;59.14
62374;BME280;48409;49.030;1.820;2023-03-04T10:38:54;101965.13;;;5.04;59.09
62374;BME280;48409;49.030;1.820;2023-03-04T10:41:22;101973.81;;;5.09;59.14
62374;BME280;48409;49.030;1.820;2023-03-04T10:44:00;101965.94;;;5.14;59.41
62374;BME280;48409;49.030;1.820;2023-03-04T10:46:26;101959.84;;;5.16;59.39
62374;BME280;48409;49.030;1.820;2023-03-04T10:48:52;101963.34;;;5.21;59.17
62374;BME280;48409;49.030;1.820;2023-03-04T10:53:42;101956.31;;;5.30;59.27
62374;BME280;48409;49.030;1.820;2023-03-04T10:58:52;101968.50;;;5.42;59.30
62374;BME280;48409;49.030;1.820;2023-03-04T11:01:17;101962.38;;;5.46;59.24
62374;BME280;48409;49.030;1.820;2023-03-04T11:03:49;101965.84;;;5.49;59.24
62374;BME280;48409;49.030;1.820;2023-03-04T11:06:19;101959.72;;;5.54;59.31
62374;BME280;48409;49.030;1.820;2023-03-04T11:08:51;101955.34;;;5.57;59.36
62374;BME280;48409;49.030;1.820;2023-03-04T11:11:29;101956.19;;;5.61;59.43
62374;BME280;48409;49.030;1.820;2023-03-04T11:13:59;101957.06;;;5.66;59.38
62374;BME280;48409;49.030;1.820;2023-03-04T11:16:26;101958.78;;;5.70;59.30
62374;BME280;48409;49.030;1.820;2023-03-04T11:18:54;101950.91;;;5.73;59.42
62374;BME280;48409;49.030;1.820;2023-03-04T11:21:23;101944.78;;;5.79;59.45
62374;BME280;48409;49.030;1.820;2023-03-04T11:38:05;101933.28;;;6.08;59.58
62374;BME280;48409;49.030;1.820;2023-03-04T11:40:11;101933.25;;;6.13;59.68
62374;BME280;48409;49.030;1.820;2023-03-04T11:42:42;101928.84;;;6.20;59.60
62374;BME280;48409;49.030;1.820;2023-03-04T11:45:21;101934.03;;;6.24;59.89
62374;BME280;48409;49.030;1.820;2023-03-04T12:00:38;101918.91;;;6.58;59.72
62374;BME280;48409;49.030;1.820;2023-03-04T12:08:19;101910.94;;;6.70;59.66
62374;BME280;48409;49.030;1.820;2023-03-04T12:20:59;101904.66;;;6.87;59.83
62374;BME280;48409;49.030;1.820;2023-03-04T12:34:02;101894.06;;;6.99;59.56
62374;BME280;48409;49.030;1.820;2023-03-04T12:36:36;101887.91;;;7.00;59.60
62374;BME280;48409;49.030;1.820;2023-03-04T12:44:15;101876.47;;;7.08;59.52
62374;BME280;48409;49.030;1.820;2023-03-04T12:49:14;101864.19;;;7.13;59.44
62374;BME280;48409;49.030;1.820;2023-03-04T12:56:41;101853.63;;;7.19;59.58
62374;BME280;48409;49.030;1.820;2023-03-04T12:59:15;101847.47;;;7.22;59.61
62374;BME280;48409;49.030;1.820;2023-03-04T13:09:23;101835.13;;;7.30;59.55
62374;BME280;48409;49.030;1.820;2023-03-04T13:12:01;101841.19;;;7.34;59.54
62374;BME280;48409;49.030;1.820;2023-03-04T13:14:28;101830.69;;;7.35;59.37
62374;BME280;48409;49.030;1.820;2023-03-04T13:16:55;101827.16;;;7.38;59.49
62374;BME280;48409;49.030;1.820;2023-03-04T13:25:29;101816.59;;;7.44;59.54
62374;BME280;48409;49.030;1.820;2023-03-04T13:30:41;101825.25;;;7.49;59.31
62374;BME280;48409;49.030;1.820;2023-03-04T13:40:43;101816.41;;;7.56;59.42
62374;BME280;48409;49.030;1.820;2023-03-04T13:43:32;101816.41;;;7.56;59.30
62374;BME280;48409;49.030;1.820;2023-03-04T13:51:15;101828.50;;;7.64;59.27
62374;BME280;48409;49.030;1.820;2023-03-04T13:53:51;101825.00;;;7.65;59.39
62374;BME280;48409;49.030;1.820;2023-03-04T14:03:59;101814.44;;;7.71;59.19
62374;BME280;48409;49.030;1.820;2023-03-04T14:06:29;101806.56;;;7.71;59.30
62374;BME280;48409;49.030;1.820;2023-03-04T14:08:55;101807.38;;;7.73;59.23
62374;BME280;48409;49.030;1.820;2023-03-04T14:11:28;101801.22;;;7.76;59.03
62374;BME280;48409;49.030;1.820;2023-03-04T14:13:56;101802.09;;;7.76;59.34
62374;BME280;48409;49.030;1.820;2023-03-04T14:16:25;101794.22;;;7.76;59.07
62374;BME280;48409;49.030;1.820;2023-03-04T14:19:01;101800.31;;;7.78;59.28
62374;BME280;48409;49.030;1.820;2023-03-04T14:21:28;101797.66;;;7.80;59.11
62374;BME280;48409;49.030;1.820;2023-03-04T14:24:15;101786.31;;;7.79;59.13
62374;BME280;48409;49.030;1.820;2023-03-04T14:26:41;101785.41;;;7.80;59.14
62374;BME280;48409;49.030;1.820;2023-03-04T14:29:23;101777.56;;;7.80;59.21
62374;BME280;48409;49.030;1.820;2023-03-04T14:31:49;101786.25;;;7.82;59.02
62374;BME280;48409;49.030;1.820;2023-03-04T14:34:49;101781.00;;;7.82;59.02
62374;BME280;48409;49.030;1.820;2023-03-04T14:37:18;101769.63;;;7.83;59.03
62374;BME280;48409;49.030;1.820;2023-03-04T14:39:44;101770.47;;;7.84;59.10
62374;BME280;48409;49.030;1.820;2023-03-04T14:42:13;101767.00;;;7.83;59.01
62374;BME280;48409;49.030;1.820;2023-03-04T14:44:44;101767.84;;;7.84;59.01
62374;BME280;48409;49.030;1.820;2023-03-04T14:49:42;101766.94;;;7.87;59.06
62374;BME280;48409;49.030;1.820;2023-03-04T14:55:07;101763.44;;;7.88;58.82
62374;BME280;48409;49.030;1.820;2023-03-04T14:57:33;101765.16;;;7.89;58.93
62374;BME280;48409;49.030;1.820;2023-03-04T15:00:17;101759.91;;;7.89;59.06
62374;BME280;48409;49.030;1.820;2023-03-04T15:03:01;101758.19;;;7.88;59.01
62374;BME280;48409;49.030;1.820;2023-03-04T15:05:28;101751.19;;;7.88;58.96
62374;BME280;48409;49.030;1.820;2023-03-04T15:07:55;101747.66;;;7.89;58.76